Forside
METAR-TAF:

METAR-TAF

Lufthavne :

Kōchi, Japan

Breddekreds: 33-32N, længdekreds: 133-40E, højde: 7 m

Aktuelle vejr

Denne rapport blev lavet for 7 timer og 35 minutter siden, kl. 11:00 UTC
Vind 3 kt fra nordnordøst
Temperatur 15°C
Fugtighed 67%
Tryk 1019 hPa
Sigt 10 km eller mere
Nogle få skyer i en højde af 2500 ft
Spredte skyer i en højde af 8000 ft
Brudte skyer i en højde af 12000 ft

METAR: RJOK 031100Z 03003KT 9999 FEW025 SCT080 BKN120 15/09 Q1019

Tid: 03:35 (18:35 UTC)

Vejrudsigter

Denne rapport blev lavet for 1 time og 27 minutter siden, kl. 17:08 UTC
Foreløbig gælder fra 03 på 18 UTC til 05 på 00 UTC
Vind 6 kt fra nordnordvest
Sigt 10 km eller mere
Nogle få skyer i en højde af 3000 ft
ændring
fra 04 på 00 UTC til 04 på 02 UTC
Vind 7 kt fra syd
ændring
fra 04 på 09 UTC til 04 på 12 UTC
Vind 11 kt fra nordnordvest

TAF: RJOK 031708Z 0318/0500 34006KT 9999 FEW030 BECMG 0400/0402 18007KT BECMG 0409/0412 34011KT

Vejrobservationer og prognoser fra mere end 4000 lufthavne (METAR og TAF).

De gule og røde prikker repræsenterer de meteorologiske stationer.

Flyt musen over at se navnet på stationen.

Så klik over at se vejr observationer og prognoser.

At skifte det kort: Klik på de grønne knapper med et sort kors for at zoome ind; på den grønne knap med en bindestreg for at zoome ud; eller på de grønne pile for tilstødende kort.


METAR-TAF: